Time;durP1;ratioP1;P1;durP2;ratioP2;P2;SDS_P1;SDS_P2;PMS_P1;PMS_P2;Temp;Humidity;BMP_temperature;BMP_pressure;BME280_temperature;BME280_humidity;BME280_pressure;Samples;Min_cycle;Max_cycle;Signal;HPM_P1;HPM_P2
2024/01/27 00:02:10;;;;;;;;;72.00;56.75;;;;;;;;5074187;28;45438;-76
2024/01/27 00:04:36;;;;;;;;;75.00;57.50;;;;;;;;5075534;28;45377;-76
2024/01/27 00:07:02;;;;;;;;;84.00;61.25;;;;;;;;5063955;28;45471;-76
2024/01/27 00:09:27;;;;;;;;;81.00;62.50;;;;;;;;5074259;28;45571;-76
2024/01/27 00:11:52;;;;;;;;;42.25;28.75;;;;;;;;5082561;27;46843;-76
2024/01/27 00:14:17;;;;;;;;;87.50;68.50;;;;;;;;5075585;28;45399;-76
2024/01/27 00:16:42;;;;;;;;;85.25;64.00;;;;;;;;5073682;28;45287;-76
2024/01/27 00:19:08;;;;;;;;;86.25;64.25;;;;;;;;5082040;27;45493;-76
2024/01/27 00:21:33;;;;;;;;;85.50;65.25;;;;;;;;5076056;28;46412;-76
2024/01/27 00:24:00;;;;;;;;;82.25;63.25;;;;;;;;5076887;28;45415;-76
2024/01/27 00:26:26;;;;;;;;;78.00;60.75;;;;;;;;5083512;28;45492;-76
2024/01/27 00:28:51;;;;;;;;;80.25;63.00;;;;;;;;5077402;28;45429;-76
2024/01/27 00:31:16;;;;;;;;;80.25;63.00;;;;;;;;5077046;28;47125;-77
2024/01/27 00:33:41;;;;;;;;;76.50;60.00;;;;;;;;5080064;28;45793;-76
2024/01/27 00:36:07;;;;;;;;;79.25;61.00;;;;;;;;5077997;28;45449;-76
2024/01/27 00:38:32;;;;;;;;;81.50;64.00;;;;;;;;5078576;28;45202;-76
2024/01/27 00:40:57;;;;;;;;;78.00;62.00;;;;;;;;5078818;28;46908;-76
2024/01/27 00:43:22;;;;;;;;;86.50;64.25;;;;;;;;5080620;28;45766;-76
2024/01/27 00:45:47;;;;;;;;;83.50;63.50;;;;;;;;5074880;28;45411;-77
2024/01/27 00:48:13;;;;;;;;;77.50;61.50;;;;;;;;5080707;28;45241;-76
2024/01/27 00:50:38;;;;;;;;;76.50;59.25;;;;;;;;5073625;28;45270;-76
2024/01/27 00:53:03;;;;;;;;;77.25;60.50;;;;;;;;5079897;28;45447;-76
2024/01/27 00:55:28;;;;;;;;;74.50;58.00;;;;;;;;5071661;28;45256;-76
2024/01/27 00:57:54;;;;;;;;;76.75;61.00;;;;;;;;5080411;28;45251;-76
2024/01/27 01:00:19;;;;;;;;;80.00;61.50;;;;;;;;5070976;28;45916;-76
2024/01/27 01:02:44;;;;;;;;;77.75;60.25;;;;;;;;5080899;28;45334;-75
2024/01/27 01:05:09;;;;;;;;;71.75;56.75;;;;;;;;5071350;28;45446;-77
2024/01/27 01:07:34;;;;;;;;;77.00;59.00;;;;;;;;5075950;28;45310;-76
2024/01/27 01:10:00;;;;;;;;;72.00;55.75;;;;;;;;5072028;28;45430;-76
2024/01/27 01:12:25;;;;;;;;;72.25;56.50;;;;;;;;5075972;28;45769;-76
2024/01/27 01:14:50;;;;;;;;;72.75;59.00;;;;;;;;5072510;28;45276;-76
2024/01/27 01:17:16;;;;;;;;;83.50;63.25;;;;;;;;5076093;28;45631;-76
2024/01/27 01:19:41;;;;;;;;;78.25;57.75;;;;;;;;5074273;28;46162;-76
2024/01/27 01:22:06;;;;;;;;;69.25;57.50;;;;;;;;5076998;28;45412;-76
2024/01/27 01:24:32;;;;;;;;;79.00;60.50;;;;;;;;5076631;27;45397;-76
2024/01/27 01:26:57;;;;;;;;;77.75;59.75;;;;;;;;5081988;28;45391;-76
2024/01/27 01:29:22;;;;;;;;;74.00;58.25;;;;;;;;5076019;28;45444;-76
2024/01/27 01:31:47;;;;;;;;;70.00;56.75;;;;;;;;5076764;28;45310;-78
2024/01/27 01:34:13;;;;;;;;;72.50;56.75;;;;;;;;5080642;28;46079;-77
2024/01/27 01:36:38;;;;;;;;;77.00;58.50;;;;;;;;5076277;27;45532;-78
2024/01/27 01:39:03;;;;;;;;;71.50;54.50;;;;;;;;5075495;28;45426;-76
2024/01/27 01:41:28;;;;;;;;;69.75;55.25;;;;;;;;5077902;28;45346;-76
2024/01/27 01:43:53;;;;;;;;;69.75;54.25;;;;;;;;5076672;28;45416;-78
2024/01/27 01:46:19;;;;;;;;;75.50;56.00;;;;;;;;5077252;28;45396;-78
2024/01/27 01:48:44;;;;;;;;;71.50;55.00;;;;;;;;5075290;28;45512;-78
2024/01/27 01:51:10;;;;;;;;;77.25;58.50;;;;;;;;5075386;28;45385;-78
2024/01/27 01:53:35;;;;;;;;;69.00;57.50;;;;;;;;5077949;28;45617;-78
2024/01/27 01:56:01;;;;;;;;;74.00;55.00;;;;;;;;5074346;28;45347;-78
2024/01/27 01:58:33;;;;;;;;;72.50;57.00;;;;;;;;5080020;28;48379;-76
2024/01/27 02:00:59;;;;;;;;;78.50;58.25;;;;;;;;5074107;28;45535;-76
2024/01/27 02:03:24;;;;;;;;;69.00;55.25;;;;;;;;5074340;28;45432;-76
2024/01/27 02:05:49;;;;;;;;;68.00;54.25;;;;;;;;5069994;28;45399;-76
2024/01/27 02:08:14;;;;;;;;;76.75;58.00;;;;;;;;5073806;28;45429;-76
2024/01/27 02:10:39;;;;;;;;;70.50;56.25;;;;;;;;5070772;28;45278;-76
2024/01/27 02:13:21;;;;;;;;;73.75;58.00;;;;;;;;5076180;28;45576;-76
2024/01/27 02:15:46;;;;;;;;;76.00;57.00;;;;;;;;5067996;28;45524;-78
2024/01/27 02:18:12;;;;;;;;;72.50;56.75;;;;;;;;5077617;28;46141;-78
2024/01/27 02:20:38;;;;;;;;;67.75;55.75;;;;;;;;5072722;28;45416;-78
2024/01/27 02:23:04;;;;;;;;;65.25;49.25;;;;;;;;5078939;28;46442;-78
2024/01/27 02:25:30;;;;;;;;;67.75;55.25;;;;;;;;5079400;28;45458;-76
2024/01/27 02:27:55;;;;;;;;;67.00;52.75;;;;;;;;5078162;28;46314;-76
2024/01/27 02:30:20;;;;;;;;;64.00;51.25;;;;;;;;5074039;28;45434;-76
2024/01/27 02:32:45;;;;;;;;;61.25;50.00;;;;;;;;5083836;28;45404;-77
2024/01/27 02:35:11;;;;;;;;;64.00;50.50;;;;;;;;5076185;28;45287;-76
2024/01/27 02:37:36;;;;;;;;;60.25;49.00;;;;;;;;5083622;28;45513;-77
2024/01/27 02:40:01;;;;;;;;;62.50;50.50;;;;;;;;5070000;28;46361;-77
2024/01/27 02:42:26;;;;;;;;;58.50;47.75;;;;;;;;5084541;27;45352;-77
2024/01/27 02:44:51;;;;;;;;;58.50;45.25;;;;;;;;5072121;28;45272;-77
2024/01/27 02:47:17;;;;;;;;;57.75;44.00;;;;;;;;5085065;27;47268;-77
2024/01/27 02:49:42;;;;;;;;;55.00;44.50;;;;;;;;5072193;28;45437;-77
2024/01/27 02:52:08;;;;;;;;;57.00;44.50;;;;;;;;5085428;28;45216;-77
2024/01/27 02:54:34;;;;;;;;;60.00;46.75;;;;;;;;5080228;28;45256;-77
2024/01/27 02:56:59;;;;;;;;;57.50;46.75;;;;;;;;5084872;28;45529;-77
2024/01/27 02:59:24;;;;;;;;;52.75;45.25;;;;;;;;5075942;28;46117;-77
2024/01/27 03:01:49;;;;;;;;;57.75;46.75;;;;;;;;5084438;27;45231;-77
2024/01/27 03:04:14;;;;;;;;;60.00;47.00;;;;;;;;5071872;28;45397;-77
2024/01/27 03:06:40;;;;;;;;;58.50;47.00;;;;;;;;5083463;28;47520;-79
2024/01/27 03:09:05;;;;;;;;;56.25;44.25;;;;;;;;5079904;28;45488;-78
2024/01/27 03:11:30;;;;;;;;;60.50;48.00;;;;;;;;5083660;27;45350;-75
2024/01/27 03:13:56;;;;;;;;;63.25;50.00;;;;;;;;5079041;28;45378;-76
2024/01/27 03:16:21;;;;;;;;;57.75;43.00;;;;;;;;5075967;28;46477;-76
2024/01/27 03:18:46;;;;;;;;;49.75;41.25;;;;;;;;5078168;27;45358;-76
2024/01/27 03:21:11;;;;;;;;;57.75;42.00;;;;;;;;5077304;28;45377;-77
2024/01/27 03:23:36;;;;;;;;;53.00;42.00;;;;;;;;5081788;28;45436;-76
2024/01/27 03:26:02;;;;;;;;;47.75;39.50;;;;;;;;5084065;28;46526;-76
2024/01/27 03:28:27;;;;;;;;;43.25;35.00;;;;;;;;5078348;28;45304;-76
2024/01/27 03:30:52;;;;;;;;;39.75;35.50;;;;;;;;5079492;28;45361;-76
2024/01/27 03:33:18;;;;;;;;;53.25;40.50;;;;;;;;5080813;28;45518;-76
2024/01/27 03:35:43;;;;;;;;;47.75;41.75;;;;;;;;5077995;28;45439;-78
2024/01/27 03:38:08;;;;;;;;;47.00;40.25;;;;;;;;5080396;28;45380;-76
2024/01/27 03:40:33;;;;;;;;;43.25;37.75;;;;;;;;5071961;28;45365;-78
2024/01/27 03:42:59;;;;;;;;;45.25;37.25;;;;;;;;5081750;28;45521;-78
2024/01/27 03:45:24;;;;;;;;;46.25;35.00;;;;;;;;5073134;28;46541;-78
2024/01/27 03:47:49;;;;;;;;;41.75;37.50;;;;;;;;5081162;28;45393;-78
2024/01/27 03:50:14;;;;;;;;;50.00;38.50;;;;;;;;5075048;28;45482;-75
2024/01/27 03:52:41;;;;;;;;;46.00;36.00;;;;;;;;5082858;28;45505;-76
2024/01/27 03:55:06;;;;;;;;;47.50;40.25;;;;;;;;5072841;28;47127;-75
2024/01/27 03:57:31;;;;;;;;;41.75;36.50;;;;;;;;5080570;28;45431;-75
2024/01/27 03:59:56;;;;;;;;;40.75;34.25;;;;;;;;5067374;28;45376;-75
2024/01/27 04:02:22;;;;;;;;;42.50;38.50;;;;;;;;5076296;28;45302;-75
2024/01/27 04:04:47;;;;;;;;;42.25;34.25;;;;;;;;5068196;28;48768;-76
2024/01/27 04:07:12;;;;;;;;;42.50;38.25;;;;;;;;5073744;28;45416;-76
2024/01/27 04:09:37;;;;;;;;;45.75;39.00;;;;;;;;5077667;28;45356;-76
2024/01/27 04:12:03;;;;;;;;;44.50;37.75;;;;;;;;5075772;28;45239;-76
2024/01/27 04:14:28;;;;;;;;;37.75;36.75;;;;;;;;5081325;28;45869;-76
2024/01/27 04:16:53;;;;;;;;;39.75;38.00;;;;;;;;5073892;28;45388;-76
2024/01/27 04:19:18;;;;;;;;;33.00;32.00;;;;;;;;5081924;28;45240;-76
2024/01/27 04:21:43;;;;;;;;;51.50;40.75;;;;;;;;5075366;27;45248;-76
2024/01/27 04:24:08;;;;;;;;;39.75;35.25;;;;;;;;5077051;28;45467;-76
2024/01/27 04:26:34;;;;;;;;;49.25;40.00;;;;;;;;5082247;27;45266;-76
2024/01/27 04:28:59;;;;;;;;;46.75;40.50;;;;;;;;5077084;28;45407;-76
2024/01/27 04:31:24;;;;;;;;;48.75;41.00;;;;;;;;5077546;27;45252;-76
2024/01/27 04:33:50;;;;;;;;;59.50;44.25;;;;;;;;5076614;28;46248;-76
2024/01/27 04:36:24;;;;;;;;;60.25;46.25;;;;;;;;5078080;27;45338;-76
2024/01/27 04:38:49;;;;;;;;;59.50;47.00;;;;;;;;5074879;28;45500;-76
2024/01/27 04:41:14;;;;;;;;;63.00;48.50;;;;;;;;5076741;28;45588;-76
2024/01/27 04:43:39;;;;;;;;;59.25;46.00;;;;;;;;5077070;28;45509;-76
2024/01/27 04:46:05;;;;;;;;;61.00;49.00;;;;;;;;5073040;28;45670;-76
2024/01/27 04:48:30;;;;;;;;;68.50;51.50;;;;;;;;5078895;28;45447;-76
2024/01/27 04:50:56;;;;;;;;;60.50;50.00;;;;;;;;5077727;28;45334;-76
2024/01/27 04:53:21;;;;;;;;;63.00;48.25;;;;;;;;5080484;28;47078;-76
2024/01/27 04:55:46;;;;;;;;;61.00;46.25;;;;;;;;5087278;27;45400;-76
2024/01/27 04:58:12;;;;;;;;;63.25;50.75;;;;;;;;5078974;28;45391;-76
2024/01/27 05:00:37;;;;;;;;;63.50;49.25;;;;;;;;5072042;28;45392;-76
2024/01/27 05:03:04;;;;;;;;;64.50;46.75;;;;;;;;5077338;27;47104;-76
2024/01/27 05:05:30;;;;;;;;;61.50;48.75;;;;;;;;5071950;28;45250;-76
2024/01/27 05:07:55;;;;;;;;;56.25;46.00;;;;;;;;5078872;28;45573;-76
2024/01/27 05:10:22;;;;;;;;;58.00;45.00;;;;;;;;5072105;28;45379;-76
2024/01/27 05:12:47;;;;;;;;;60.25;48.50;;;;;;;;5077978;28;47498;-76
2024/01/27 05:15:12;;;;;;;;;61.25;48.50;;;;;;;;5071147;28;45270;-76
2024/01/27 05:17:37;;;;;;;;;57.75;49.25;;;;;;;;5080468;28;45202;-76
2024/01/27 05:20:04;;;;;;;;;33.00;28.75;;;;;;;;5074897;28;45631;-76
2024/01/27 05:22:29;;;;;;;;;58.00;47.25;;;;;;;;5084985;27;45303;-76
2024/01/27 05:24:54;;;;;;;;;52.50;43.50;;;;;;;;5075632;28;45276;-76
2024/01/27 05:27:19;;;;;;;;;52.50;43.75;;;;;;;;5081739;28;45497;-76
2024/01/27 05:29:45;;;;;;;;;63.00;46.25;;;;;;;;5079420;27;46391;-76
2024/01/27 05:32:10;;;;;;;;;65.75;51.00;;;;;;;;5079876;28;46480;-76
2024/01/27 05:34:35;;;;;;;;;56.25;46.50;;;;;;;;5075019;28;45418;-76
2024/01/27 05:37:00;;;;;;;;;50.50;40.50;;;;;;;;5079523;28;45304;-76
2024/01/27 05:39:25;;;;;;;;;56.25;46.75;;;;;;;;5076446;28;45563;-76
2024/01/27 05:41:51;;;;;;;;;57.25;47.00;;;;;;;;5078156;28;46751;-76
2024/01/27 05:44:16;;;;;;;;;60.00;48.75;;;;;;;;5075293;28;45288;-76
2024/01/27 05:46:41;;;;;;;;;58.25;46.75;;;;;;;;5079830;28;45382;-76
2024/01/27 05:49:06;;;;;;;;;53.50;44.25;;;;;;;;5078573;27;45671;-75
2024/01/27 05:51:32;;;;;;;;;53.50;44.50;;;;;;;;5080637;28;48285;-76
2024/01/27 05:53:57;;;;;;;;;52.25;44.00;;;;;;;;5074431;27;45329;-76
2024/01/27 05:56:22;;;;;;;;;51.75;43.75;;;;;;;;5076343;28;45385;-75
2024/01/27 05:58:47;;;;;;;;;56.25;43.75;;;;;;;;5076251;27;45496;-76
2024/01/27 06:01:13;;;;;;;;;55.00;45.50;;;;;;;;5077698;28;46677;-76
2024/01/27 06:03:40;;;;;;;;;56.50;45.50;;;;;;;;5073815;28;45271;-75
2024/01/27 06:06:06;;;;;;;;;59.25;45.50;;;;;;;;5075909;28;45247;-76
2024/01/27 06:08:31;;;;;;;;;57.25;45.00;;;;;;;;5082102;27;45365;-75
2024/01/27 06:10:56;;;;;;;;;55.00;46.00;;;;;;;;5078305;28;45697;-76
2024/01/27 06:13:21;;;;;;;;;56.75;44.75;;;;;;;;5082898;28;45247;-75
2024/01/27 06:15:47;;;;;;;;;62.50;46.50;;;;;;;;5080988;28;45511;-76
2024/01/27 06:18:12;;;;;;;;;52.75;45.00;;;;;;;;5081289;28;45494;-76
2024/01/27 06:20:37;;;;;;;;;51.75;43.50;;;;;;;;5081843;28;47990;-75
2024/01/27 06:23:02;;;;;;;;;57.00;45.75;;;;;;;;5083626;27;45242;-75
2024/01/27 06:25:27;;;;;;;;;59.00;45.00;;;;;;;;5082553;28;45417;-75
2024/01/27 06:27:53;;;;;;;;;3.00;0.25;;;;;;;;5082707;28;45556;-76
2024/01/27 06:30:18;;;;;;;;;53.25;42.75;;;;;;;;5078270;28;48240;-75
2024/01/27 06:32:43;;;;;;;;;44.25;39.75;;;;;;;;5081884;27;45243;-75
2024/01/27 06:35:08;;;;;;;;;49.00;42.00;;;;;;;;5074744;28;45228;-76
2024/01/27 06:37:33;;;;;;;;;48.00;43.25;;;;;;;;5083295;27;45540;-76
2024/01/27 06:39:59;;;;;;;;;53.25;43.25;;;;;;;;5074212;28;45484;-76
2024/01/27 06:42:24;;;;;;;;;52.75;42.00;;;;;;;;5085318;28;45483;-76
2024/01/27 06:44:49;;;;;;;;;49.00;41.00;;;;;;;;5077453;28;45205;-76
2024/01/27 06:47:14;;;;;;;;;47.50;40.00;;;;;;;;5085769;28;45463;-77
2024/01/27 06:49:39;;;;;;;;;52.25;43.50;;;;;;;;5081150;28;48482;-77
2024/01/27 06:52:05;;;;;;;;;50.50;42.25;;;;;;;;5086068;27;45524;-76
2024/01/27 06:54:30;;;;;;;;;56.50;45.00;;;;;;;;5078744;28;45500;-77
2024/01/27 06:56:55;;;;;;;;;55.00;45.00;;;;;;;;5078100;27;45544;-76
2024/01/27 06:59:20;;;;;;;;;54.00;42.50;;;;;;;;5078802;28;46971;-77
2024/01/27 07:01:48;;;;;;;;;56.50;44.25;;;;;;;;5080306;28;45306;-77
2024/01/27 07:04:13;;;;;;;;;57.00;46.00;;;;;;;;5075044;28;45432;-76
2024/01/27 07:06:38;;;;;;;;;54.25;45.25;;;;;;;;5081270;28;45383;-76
2024/01/27 07:09:03;;;;;;;;;56.25;48.25;;;;;;;;5075598;28;46437;-76
2024/01/27 07:11:28;;;;;;;;;54.50;45.50;;;;;;;;5081537;28;45300;-76
2024/01/27 07:13:53;;;;;;;;;59.75;47.00;;;;;;;;5078159;28;45400;-78
2024/01/27 07:16:19;;;;;;;;;56.75;45.25;;;;;;;;5082919;28;45670;-77
2024/01/27 07:18:45;;;;;;;;;61.50;46.75;;;;;;;;5068832;28;46629;-77
2024/01/27 07:21:14;;;;;;;;;61.50;47.00;;;;;;;;5076632;28;45230;-77
2024/01/27 07:23:39;;;;;;;;;50.25;43.75;;;;;;;;5077004;27;45365;-76
2024/01/27 07:26:04;;;;;;;;;54.50;44.25;;;;;;;;5083347;28;45287;-76
2024/01/27 07:28:30;;;;;;;;;49.00;41.75;;;;;;;;5076496;28;46108;-76
2024/01/27 07:30:55;;;;;;;;;44.25;40.75;;;;;;;;5079584;28;45330;-75
2024/01/27 07:33:20;;;;;;;;;57.00;45.50;;;;;;;;5081192;28;45686;-76
2024/01/27 07:35:45;;;;;;;;;51.00;42.25;;;;;;;;5076008;28;45614;-77
2024/01/27 07:38:10;;;;;;;;;47.75;43.00;;;;;;;;5080744;28;46301;-77
2024/01/27 07:40:36;;;;;;;;;52.75;42.00;;;;;;;;5082424;27;45305;-77
2024/01/27 07:43:01;;;;;;;;;65.00;47.50;;;;;;;;5080649;28;45466;-74
2024/01/27 07:45:26;;;;;;;;;55.25;44.50;;;;;;;;5079441;28;45792;-77
2024/01/27 07:47:51;;;;;;;;;62.00;47.25;;;;;;;;5082176;27;45411;-77
2024/01/27 07:50:17;;;;;;;;;55.25;45.50;;;;;;;;5072210;28;45444;-76
2024/01/27 07:52:42;;;;;;;;;55.25;44.75;;;;;;;;5081036;28;46128;-75
2024/01/27 07:55:07;;;;;;;;;53.75;43.00;;;;;;;;5075192;28;45310;-74
2024/01/27 07:57:33;;;;;;;;;59.25;46.75;;;;;;;;5080972;28;47110;-77
2024/01/27 07:59:58;;;;;;;;;52.50;45.25;;;;;;;;5074921;28;45325;-76
2024/01/27 08:02:23;;;;;;;;;43.50;38.50;;;;;;;;5081808;28;45451;-75
2024/01/27 08:04:48;;;;;;;;;57.75;45.00;;;;;;;;5069708;28;45381;-75
2024/01/27 08:07:16;;;;;;;;;54.75;43.50;;;;;;;;5082737;28;45499;-75
2024/01/27 08:09:41;;;;;;;;;62.50;48.00;;;;;;;;5075573;28;45462;-75
2024/01/27 08:12:06;;;;;;;;;56.75;45.00;;;;;;;;5081276;28;45448;-76
2024/01/27 08:14:33;;;;;;;;;59.25;45.00;;;;;;;;5078727;28;45374;-76
2024/01/27 08:16:58;;;;;;;;;51.75;44.00;;;;;;;;5081400;28;47251;-76
2024/01/27 08:19:24;;;;;;;;;52.25;44.00;;;;;;;;5074534;28;45365;-76
2024/01/27 08:21:49;;;;;;;;;62.00;47.75;;;;;;;;5076605;28;45276;-77
2024/01/27 08:24:14;;;;;;;;;48.25;40.25;;;;;;;;5075878;28;45629;-76
2024/01/27 08:26:39;;;;;;;;;49.50;42.00;;;;;;;;5083422;28;45603;-77
2024/01/27 08:29:05;;;;;;;;;53.50;45.50;;;;;;;;5074432;28;45477;-77
2024/01/27 08:31:30;;;;;;;;;62.75;48.75;;;;;;;;5082696;28;45370;-76
2024/01/27 08:33:55;;;;;;;;;55.00;43.25;;;;;;;;5078004;27;45336;-77
2024/01/27 08:36:21;;;;;;;;;56.00;45.00;;;;;;;;5078813;28;46203;-76
2024/01/27 08:38:46;;;;;;;;;54.75;44.75;;;;;;;;5076791;28;45427;-76
2024/01/27 08:41:12;;;;;;;;;48.00;43.50;;;;;;;;5080028;28;45286;-76
2024/01/27 08:43:37;;;;;;;;;46.50;41.00;;;;;;;;5079925;28;45538;-77
2024/01/27 08:46:02;;;;;;;;;56.50;44.00;;;;;;;;5080855;28;46272;-76
2024/01/27 08:48:27;;;;;;;;;59.25;46.50;;;;;;;;5077379;27;45440;-75
2024/01/27 08:50:52;;;;;;;;;59.75;45.00;;;;;;;;5075847;28;45381;-77
2024/01/27 08:53:18;;;;;;;;;53.25;44.25;;;;;;;;5078640;28;45713;-76
2024/01/27 08:55:43;;;;;;;;;56.50;42.75;;;;;;;;5075265;28;45402;-76
2024/01/27 08:58:08;;;;;;;;;51.25;43.75;;;;;;;;5079545;28;45356;-77
2024/01/27 09:00:33;;;;;;;;;55.75;43.00;;;;;;;;5073555;28;45481;-77
2024/01/27 09:02:58;;;;;;;;;53.50;43.50;;;;;;;;5080085;28;45349;-76
2024/01/27 09:05:24;;;;;;;;;45.75;41.75;;;;;;;;5069156;28;46463;-75
2024/01/27 09:07:49;;;;;;;;;53.75;43.50;;;;;;;;5079129;28;45392;-76
2024/01/27 09:10:15;;;;;;;;;60.00;47.25;;;;;;;;5071562;28;45390;-76
2024/01/27 09:12:40;;;;;;;;;52.25;43.25;;;;;;;;5081544;28;45494;-76
2024/01/27 09:15:07;;;;;;;;;57.00;45.00;;;;;;;;5075413;28;45654;-76
2024/01/27 09:17:32;;;;;;;;;57.50;45.00;;;;;;;;5081551;27;45288;-78
2024/01/27 09:19:57;;;;;;;;;52.75;44.25;;;;;;;;5076683;27;45240;-77
2024/01/27 09:22:23;;;;;;;;;54.50;45.25;;;;;;;;5083312;28;45172;-77
2024/01/27 09:24:48;;;;;;;;;58.75;48.25;;;;;;;;5078520;27;47309;-77
2024/01/27 09:27:13;;;;;;;;;55.00;41.00;;;;;;;;5077163;28;45324;-77
2024/01/27 09:29:38;;;;;;;;;54.75;44.75;;;;;;;;5075419;28;45193;-76
2024/01/27 09:32:04;;;;;;;;;56.25;44.00;;;;;;;;5079181;28;45180;-76
2024/01/27 09:34:29;;;;;;;;;56.75;46.50;;;;;;;;5074749;28;46610;-76
2024/01/27 09:36:54;;;;;;;;;57.00;45.50;;;;;;;;5077516;28;45234;-76
2024/01/27 09:39:19;;;;;;;;;59.50;48.50;;;;;;;;5072780;28;45626;-77
2024/01/27 09:41:45;;;;;;;;;58.75;48.75;;;;;;;;5083632;28;45411;-76
2024/01/27 09:44:11;;;;;;;;;59.25;47.50;;;;;;;;5080363;27;46607;-76
2024/01/27 09:46:38;;;;;;;;;55.75;45.00;;;;;;;;5083088;28;45617;-75
2024/01/27 09:49:03;;;;;;;;;57.75;46.75;;;;;;;;5081095;27;45389;-76
2024/01/27 09:51:29;;;;;;;;;63.25;49.00;;;;;;;;5085510;28;45352;-76
2024/01/27 09:53:54;;;;;;;;;58.50;45.00;;;;;;;;5078402;28;46616;-76
2024/01/27 09:56:20;;;;;;;;;59.00;46.50;;;;;;;;5080470;28;45261;-76
2024/01/27 09:58:46;;;;;;;;;44.00;39.00;;;;;;;;5077986;28;45266;-76
2024/01/27 10:01:12;;;;;;;;;48.75;42.75;;;;;;;;5075517;28;45817;-76
2024/01/27 10:03:40;;;;;;;;;53.50;44.25;;;;;;;;5078313;28;45974;-76
2024/01/27 10:06:08;;;;;;;;;55.25;43.50;;;;;;;;5078056;28;45436;-76
2024/01/27 10:08:33;;;;;;;;;58.00;47.25;;;;;;;;5081221;28;45472;-76
2024/01/27 10:10:59;;;;;;;;;51.50;44.25;;;;;;;;5078006;28;45586;-76
2024/01/27 10:13:27;;;;;;;;;59.00;46.75;;;;;;;;5082983;28;45403;-76
2024/01/27 10:16:02;;;;;;;;;58.25;45.50;;;;;;;;5081156;28;45325;-77
2024/01/27 10:18:28;;;;;;;;;55.50;46.50;;;;;;;;5081570;28;45353;-77
2024/01/27 10:20:53;;;;;;;;;53.25;45.00;;;;;;;;5078780;28;45252;-77
2024/01/27 10:23:18;;;;;;;;;54.25;41.25;;;;;;;;5080790;28;46749;-77
2024/01/27 10:25:44;;;;;;;;;54.50;43.50;;;;;;;;5082312;28;45419;-77
2024/01/27 10:28:09;;;;;;;;;50.00;42.25;;;;;;;;5082323;28;45415;-77
2024/01/27 10:30:34;;;;;;;;;49.25;43.00;;;;;;;;5070598;28;45381;-77
2024/01/27 10:32:59;;;;;;;;;55.75;43.00;;;;;;;;5082167;28;46587;-77
2024/01/27 10:35:25;;;;;;;;;51.75;42.00;;;;;;;;5071918;27;45349;-77
2024/01/27 10:37:54;;;;;;;;;47.50;42.00;;;;;;;;5083437;28;45516;-77
2024/01/27 10:40:19;;;;;;;;;11.75;8.25;;;;;;;;5073861;28;45353;-77
2024/01/27 10:42:45;;;;;;;;;50.00;42.50;;;;;;;;5081922;28;46359;-76
2024/01/27 10:45:11;;;;;;;;;53.50;43.25;;;;;;;;5073400;28;45457;-76
2024/01/27 10:47:38;;;;;;;;;48.50;38.75;;;;;;;;5083288;28;45452;-76
2024/01/27 10:50:07;;;;;;;;;54.75;42.00;;;;;;;;5068782;28;45586;-76
2024/01/27 10:52:34;;;;;;;;;54.25;42.75;;;;;;;;5074176;28;47228;-76
2024/01/27 10:55:01;;;;;;;;;50.00;43.25;;;;;;;;5073638;27;45364;-76
2024/01/27 10:57:26;;;;;;;;;57.00;42.50;;;;;;;;5081754;28;45357;-76
2024/01/27 10:59:53;;;;;;;;;44.25;39.00;;;;;;;;5079369;28;45690;-77
2024/01/27 11:02:18;;;;;;;;;50.50;39.50;;;;;;;;5082706;28;46545;-78
2024/01/27 11:04:44;;;;;;;;;49.00;42.00;;;;;;;;5073465;28;45574;-78
2024/01/27 11:07:10;;;;;;;;;36.00;34.75;;;;;;;;5082639;28;45504;-78
2024/01/27 11:09:36;;;;;;;;;44.00;38.00;;;;;;;;5076464;28;45362;-78
2024/01/27 11:12:02;;;;;;;;;29.00;25.75;;;;;;;;5081670;28;45558;-77
2024/01/27 11:14:27;;;;;;;;;17.00;11.33;;;;;;;;5078474;27;45434;-76
2024/01/27 11:16:56;;;;;;;;;8.33;8.33;;;;;;;;5083282;28;45967;-76
2024/01/27 11:19:21;;;;;;;;;8.33;8.33;;;;;;;;5085238;27;45321;-76
2024/01/27 11:21:48;;;;;;;;;11.00;7.00;;;;;;;;5084250;27;46984;-76
2024/01/27 11:24:16;;;;;;;;;8.00;8.00;;;;;;;;5077387;28;45376;-77
2024/01/27 11:26:42;;;;;;;;;6.33;6.33;;;;;;;;5084193;28;45468;-76
2024/01/27 11:29:09;;;;;;;;;7.67;6.33;;;;;;;;5072246;28;45406;-77
2024/01/27 11:31:35;;;;;;;;;9.67;7.00;;;;;;;;5079077;28;45346;-77
2024/01/27 11:34:00;;;;;;;;;7.00;5.33;;;;;;;;5078636;27;45540;-77
2024/01/27 11:36:26;;;;;;;;;14.00;7.67;;;;;;;;5079864;28;45875;-77
2024/01/27 11:38:52;;;;;;;;;8.67;7.00;;;;;;;;5080013;28;45568;-77
2024/01/27 11:41:28;;;;;;;;;10.00;7.00;;;;;;;;5078776;28;47049;-77
2024/01/27 11:43:57;;;;;;;;;10.00;5.00;;;;;;;;5079676;28;45622;-77
2024/01/27 11:46:23;;;;;;;;;8.67;7.33;;;;;;;;5083006;28;45457;-77
2024/01/27 11:48:51;;;;;;;;;8.00;7.67;;;;;;;;5081735;27;45516;-77
2024/01/27 11:51:18;;;;;;;;;4.00;4.00;;;;;;;;5077748;28;45257;-78
2024/01/27 11:53:44;;;;;;;;;5.00;5.00;;;;;;;;5076681;28;45329;-76
2024/01/27 11:56:10;;;;;;;;;8.33;8.00;;;;;;;;5078673;28;45399;-75
2024/01/27 11:58:35;;;;;;;;;7.00;7.00;;;;;;;;5075739;28;45437;-76
2024/01/27 12:01:00;;;;;;;;;8.67;7.00;;;;;;;;5073240;28;46091;-76
2024/01/27 12:03:26;;;;;;;;;8.00;7.33;;;;;;;;5079824;28;45435;-76
2024/01/27 12:05:51;;;;;;;;;6.00;6.00;;;;;;;;5074165;27;45578;-75
2024/01/27 12:08:17;;;;;;;;;9.00;7.33;;;;;;;;5080527;28;45468;-76
2024/01/27 12:10:42;;;;;;;;;5.00;5.00;;;;;;;;5077388;28;45568;-76
2024/01/27 12:13:07;;;;;;;;;9.00;9.00;;;;;;;;5079889;27;45455;-76
2024/01/27 12:15:33;;;;;;;;;8.00;5.67;;;;;;;;5078767;28;45488;-75
2024/01/27 12:17:58;;;;;;;;;6.67;4.00;;;;;;;;5081823;28;45477;-75
2024/01/27 12:20:24;;;;;;;;;8.00;5.00;;;;;;;;5070572;28;46798;-75
2024/01/27 12:22:52;;;;;;;;;5.00;4.33;;;;;;;;5081481;28;45255;-77
2024/01/27 12:25:21;;;;;;;;;5.33;4.00;;;;;;;;5077412;28;45390;-77
2024/01/27 12:27:46;;;;;;;;;4.33;3.00;;;;;;;;5081241;27;45354;-76
2024/01/27 12:30:11;;;;;;;;;8.00;5.00;;;;;;;;5069474;28;46065;-75
2024/01/27 12:32:37;;;;;;;;;5.00;4.00;;;;;;;;5082517;28;45374;-75
2024/01/27 12:35:04;;;;;;;;;8.67;6.67;;;;;;;;5070766;28;45299;-75
2024/01/27 12:37:29;;;;;;;;;10.00;8.00;;;;;;;;5084030;27;45619;-75
2024/01/27 12:39:54;;;;;;;;;12.33;5.00;;;;;;;;5073003;28;48496;-77
2024/01/27 12:42:20;;;;;;;;;9.33;6.00;;;;;;;;5083259;28;45411;-76
2024/01/27 12:44:45;;;;;;;;;6.00;6.00;;;;;;;;5079340;28;45744;-75
2024/01/27 12:47:10;;;;;;;;;9.00;6.67;;;;;;;;5082846;28;45308;-76
2024/01/27 12:49:36;;;;;;;;;4.00;4.00;;;;;;;;5074524;27;46196;-76
2024/01/27 12:52:01;;;;;;;;;4.00;4.00;;;;;;;;5075216;27;45388;-77
2024/01/27 12:54:26;;;;;;;;;3.00;3.00;;;;;;;;5081187;28;45426;-76
2024/01/27 12:56:52;;;;;;;;;9.00;5.33;;;;;;;;5077924;28;45378;-76
2024/01/27 12:59:17;;;;;;;;;6.67;4.67;;;;;;;;5072539;28;47112;-76
2024/01/27 13:01:42;;;;;;;;;5.00;4.00;;;;;;;;5077577;28;45574;-76
2024/01/27 13:04:07;;;;;;;;;4.33;4.33;;;;;;;;5074084;28;45482;-76
2024/01/27 13:06:33;;;;;;;;;5.33;4.00;;;;;;;;5078743;28;45603;-75
2024/01/27 13:08:58;;;;;;;;;5.00;5.00;;;;;;;;5077938;27;48165;-76
2024/01/27 13:11:24;;;;;;;;;6.00;5.67;;;;;;;;5080474;28;45344;-76
2024/01/27 13:13:50;;;;;;;;;6.33;5.33;;;;;;;;5078401;28;45509;-76
2024/01/27 13:16:15;;;;;;;;;3.00;3.00;;;;;;;;5082346;28;45364;-76
2024/01/27 13:18:41;;;;;;;;;10.00;4.00;;;;;;;;5075065;27;46179;-76
2024/01/27 13:21:06;;;;;;;;;5.33;4.00;;;;;;;;5087143;27;45294;-74
2024/01/27 13:23:32;;;;;;;;;5.00;5.00;;;;;;;;5077433;28;45410;-76
2024/01/27 13:25:57;;;;;;;;;3.00;3.00;;;;;;;;5082651;28;45497;-74
2024/01/27 13:28:22;;;;;;;;;3.33;3.33;;;;;;;;5076157;28;45490;-75
2024/01/27 13:30:48;;;;;;;;;2.33;2.33;;;;;;;;5071456;28;45297;-75
2024/01/27 13:33:14;;;;;;;;;4.67;2.33;;;;;;;;5078613;28;45492;-75
2024/01/27 13:35:48;;;;;;;;;4.33;3.00;;;;;;;;5073345;28;45514;-74
2024/01/27 13:38:14;;;;;;;;;3.00;3.00;;;;;;;;5071906;28;48427;-75
2024/01/27 13:40:40;;;;;;;;;10.67;4.33;;;;;;;;5076214;28;45435;-76
2024/01/27 13:43:05;;;;;;;;;2.33;2.33;;;;;;;;5078836;28;45353;-76
2024/01/27 13:45:31;;;;;;;;;2.00;2.00;;;;;;;;5079629;28;45227;-75
2024/01/27 13:47:56;;;;;;;;;4.00;3.67;;;;;;;;5080630;28;45426;-75
2024/01/27 13:50:21;;;;;;;;;2.67;2.33;;;;;;;;5070309;28;45360;-76
2024/01/27 13:52:48;;;;;;;;;3.00;3.00;;;;;;;;5070897;27;45453;-76
2024/01/27 13:55:13;;;;;;;;;8.67;5.67;;;;;;;;5071695;28;45260;-75
2024/01/27 13:57:38;;;;;;;;;8.33;3.67;;;;;;;;5081025;28;45253;-76
2024/01/27 14:00:03;;;;;;;;;4.00;4.00;;;;;;;;5065918;28;45400;-74
2024/01/27 14:02:30;;;;;;;;;5.00;3.33;;;;;;;;5082399;28;45281;-75
2024/01/27 14:04:55;;;;;;;;;6.00;5.00;;;;;;;;5070868;28;45503;-75
2024/01/27 14:07:22;;;;;;;;;8.00;5.00;;;;;;;;5082009;28;45581;-75
2024/01/27 14:09:47;;;;;;;;;5.00;5.00;;;;;;;;5073922;28;45508;-75
2024/01/27 14:12:13;;;;;;;;;7.67;6.67;;;;;;;;5082381;27;45262;-75